createdAt,value
2018-09-08T00:02:21.486Z,7.33
2018-09-08T00:04:50.839Z,6.00
2018-09-08T00:07:41.973Z,7.33
2018-09-08T00:10:11.789Z,6.67
2018-09-08T00:12:42.051Z,7.33
2018-09-08T00:15:18.864Z,7.33
2018-09-08T00:17:54.305Z,6.00
2018-09-08T00:20:28.643Z,7.67
2018-09-08T00:23:03.044Z,9.00
2018-09-08T00:25:40.154Z,7.00
2018-09-08T00:32:34.246Z,7.33
2018-09-08T00:35:04.656Z,7.33
2018-09-08T00:37:34.873Z,6.67
2018-09-08T00:40:05.163Z,8.33
2018-09-08T00:42:35.492Z,6.00
2018-09-08T00:45:06.299Z,6.67
2018-09-08T00:47:36.495Z,7.67
2018-09-08T00:50:05.997Z,8.00
2018-09-08T00:52:36.279Z,7.20
2018-09-08T00:55:05.566Z,6.67
2018-09-08T00:57:34.865Z,8.00
2018-09-08T01:00:05.761Z,9.00
2018-09-08T01:02:35.163Z,8.00
2018-09-08T01:05:06.819Z,6.00
2018-09-08T01:07:38.848Z,8.00
2018-09-08T01:10:10.399Z,8.00
2018-09-08T01:12:39.678Z,7.33
2018-09-08T01:15:11.665Z,9.00
2018-09-08T01:17:42.639Z,8.00
2018-09-08T01:20:12.148Z,7.33
2018-09-08T01:22:43.188Z,6.00
2018-09-08T01:25:15.267Z,7.33
2018-09-08T01:27:45.691Z,6.67
2018-09-08T01:30:15.605Z,8.00
2018-09-08T01:32:44.960Z,8.67
2018-09-08T01:35:14.741Z,9.00
2018-09-08T01:37:44.052Z,7.33
2018-09-08T01:40:16.120Z,6.33
2018-09-08T01:42:45.432Z,8.33
2018-09-08T01:45:16.123Z,8.00
2018-09-08T01:47:46.378Z,9.00
2018-09-08T01:50:15.781Z,9.00
2018-09-08T01:52:45.102Z,8.00
2018-09-08T01:55:14.484Z,8.00
2018-09-08T01:57:45.504Z,9.33
2018-09-08T02:00:16.224Z,9.00
2018-09-08T02:02:47.427Z,9.00
2018-09-08T02:05:19.421Z,8.67
2018-09-08T02:07:48.775Z,8.33
2018-09-08T02:10:19.877Z,8.67
2018-09-08T02:12:49.623Z,9.67
2018-09-08T02:15:21.550Z,9.00
2018-09-08T02:17:51.832Z,9.33
2018-09-08T02:20:21.827Z,8.67
2018-09-08T02:22:51.169Z,9.67
2018-09-08T02:25:22.381Z,11.67
2018-09-08T02:27:53.801Z,8.33
2018-09-08T02:30:26.309Z,9.67
2018-09-08T02:32:56.700Z,8.67
2018-09-08T02:35:27.440Z,9.67
2018-09-08T02:37:56.921Z,7.33
2018-09-08T02:40:27.646Z,8.00
2018-09-08T02:42:58.004Z,8.00
2018-09-08T02:45:28.281Z,10.00
2018-09-08T02:48:00.943Z,8.67
2018-09-08T02:50:31.460Z,9.00
2018-09-08T02:53:02.484Z,8.67
2018-09-08T02:55:31.706Z,8.33
2018-09-08T02:58:01.750Z,11.00
2018-09-08T03:00:30.961Z,8.00
2018-09-08T03:03:00.759Z,10.67
2018-09-08T03:05:28.995Z,10.00
2018-09-08T03:07:57.809Z,8.67
2018-09-08T03:10:25.746Z,9.33
2018-09-08T03:12:54.282Z,10.00
2018-09-08T03:15:25.657Z,8.00
2018-09-08T03:17:54.524Z,7.00
2018-09-08T03:20:23.331Z,7.00
2018-09-08T03:22:53.077Z,8.00
2018-09-08T03:25:21.159Z,9.33
2018-09-08T03:27:49.107Z,8.00
2018-09-08T03:30:18.022Z,8.00
2018-09-08T03:32:46.811Z,8.00
2018-09-08T03:35:15.661Z,10.00
2018-09-08T03:37:44.463Z,7.67
2018-09-08T03:40:12.371Z,7.33
2018-09-08T03:42:41.200Z,8.00
2018-09-08T03:45:09.164Z,9.67
2018-09-08T03:47:38.005Z,8.00
2018-09-08T03:50:05.963Z,8.67
2018-09-08T03:52:34.853Z,7.33
2018-09-08T03:55:03.619Z,7.00
2018-09-08T03:57:32.452Z,7.00
2018-09-08T04:00:01.304Z,10.00
2018-09-08T04:02:30.243Z,11.00
2018-09-08T04:05:01.182Z,7.33
2018-09-08T04:07:31.392Z,8.00
2018-09-08T04:10:04.553Z,7.25
2018-09-08T04:12:34.780Z,10.00
2018-09-08T04:15:04.142Z,9.33
2018-09-08T04:17:33.572Z,8.00
2018-09-08T04:20:03.824Z,8.00
2018-09-08T04:22:35.904Z,7.00
2018-09-08T04:25:07.608Z,8.00
2018-09-08T04:27:37.936Z,6.33
2018-09-08T04:30:08.215Z,7.00
2018-09-08T04:32:38.427Z,7.00
2018-09-08T04:35:08.664Z,7.67
2018-09-08T04:37:39.857Z,8.00
2018-09-08T04:40:10.084Z,7.00
2018-09-08T04:42:40.256Z,7.00
2018-09-08T04:45:09.977Z,5.00
2018-09-08T04:47:41.184Z,5.00
2018-09-08T04:50:11.526Z,5.00
2018-09-08T04:52:42.780Z,7.00
2018-09-08T04:55:13.211Z,7.00
2018-09-08T04:57:43.528Z,7.00
2018-09-08T05:00:15.352Z,7.00
2018-09-08T05:02:46.608Z,8.00
2018-09-08T05:05:16.951Z,7.33
2018-09-08T05:07:47.521Z,5.67
2018-09-08T05:10:17.800Z,5.67
2018-09-08T05:12:48.099Z,7.00
2018-09-08T05:15:19.291Z,7.00
2018-09-08T05:17:49.594Z,5.33
2018-09-08T05:20:19.814Z,5.33
2018-09-08T05:22:50.128Z,7.00
2018-09-08T05:25:20.319Z,7.00
2018-09-08T05:27:50.611Z,6.33
2018-09-08T05:30:23.420Z,5.67
2018-09-08T05:32:53.679Z,6.00
2018-09-08T05:35:25.007Z,5.33
2018-09-08T05:37:55.427Z,7.00
2018-09-08T05:40:26.821Z,4.80
2018-09-08T05:42:57.146Z,5.00
2018-09-08T05:45:28.548Z,7.60
2018-09-08T05:47:58.921Z,5.00
2018-09-08T05:50:29.094Z,6.00
2018-09-08T05:53:00.752Z,6.00
2018-09-08T05:55:31.412Z,6.00
2018-09-08T05:58:01.728Z,6.00
2018-09-08T06:00:32.958Z,9.67
2018-09-08T06:03:03.237Z,6.00
2018-09-08T06:05:36.091Z,5.00
2018-09-08T06:08:07.253Z,6.25
2018-09-08T06:10:37.994Z,7.00
2018-09-08T06:16:10.895Z,6.67
2018-09-08T06:18:40.248Z,6.67
2018-09-08T06:21:09.609Z,8.00
2018-09-08T06:23:40.748Z,5.20
2018-09-08T06:26:12.292Z,5.33
2018-09-08T06:28:42.693Z,4.00
2018-09-08T06:31:13.174Z,4.00
2018-09-08T06:33:43.495Z,4.00
2018-09-08T06:36:13.739Z,6.00
2018-09-08T06:38:44.898Z,6.00
2018-09-08T06:41:16.006Z,3.40
2018-09-08T06:43:48.108Z,5.20
2018-09-08T06:46:19.560Z,3.40
2018-09-08T06:48:50.702Z,4.00
2018-09-08T06:51:22.634Z,3.40
2018-09-08T06:53:55.087Z,3.00
2018-09-08T06:56:26.191Z,4.00
2018-09-08T06:58:57.288Z,3.00
2018-09-08T07:01:28.609Z,4.00
2018-09-08T07:04:00.656Z,2.67
2018-09-08T07:06:38.146Z,3.40
2018-09-08T07:09:10.656Z,3.80
2018-09-08T07:11:41.864Z,3.67
2018-09-08T07:14:13.082Z,4.00
2018-09-08T07:16:44.249Z,3.00
2018-09-08T07:19:15.415Z,2.20
2018-09-08T07:21:47.512Z,3.00
2018-09-08T07:24:18.602Z,3.60
2018-09-08T07:26:49.780Z,3.00
2018-09-08T07:29:21.007Z,3.60
2018-09-08T07:31:52.947Z,3.20
2018-09-08T07:34:24.052Z,3.00
2018-09-08T07:36:55.321Z,2.80
2018-09-08T07:39:29.036Z,3.00
2018-09-08T07:42:00.215Z,3.00
2018-09-08T07:44:31.964Z,2.60
2018-09-08T07:47:04.611Z,2.00
2018-09-08T07:49:36.113Z,1.80
2018-09-08T07:52:07.303Z,2.00
2018-09-08T07:54:38.389Z,2.00
2018-09-08T07:57:12.055Z,2.00
2018-09-08T07:59:43.371Z,2.00
2018-09-08T08:02:15.547Z,2.00
2018-09-08T08:04:46.673Z,2.00
2018-09-08T08:07:17.848Z,2.80
2018-09-08T08:09:50.116Z,2.60
2018-09-08T08:12:23.211Z,2.00
2018-09-08T08:14:54.549Z,2.60
2018-09-08T08:17:25.669Z,2.00
2018-09-08T08:19:58.411Z,2.00
2018-09-08T08:22:29.561Z,2.00
2018-09-08T08:25:00.671Z,1.80
2018-09-08T08:27:31.801Z,1.00
2018-09-08T08:30:03.240Z,1.00
2018-09-08T08:32:35.015Z,2.00
2018-09-08T08:35:06.239Z,1.20
2018-09-08T08:37:37.338Z,1.00
2018-09-08T08:40:08.484Z,1.00
2018-09-08T08:42:39.603Z,1.80
2018-09-08T08:45:12.570Z,1.00
2018-09-08T08:47:43.691Z,1.00
2018-09-08T08:50:25.816Z,1.80
2018-09-08T08:55:11.344Z,2.00
2018-09-08T08:57:42.692Z,1.00
2018-09-08T09:00:16.095Z,1.20
2018-09-08T09:02:47.855Z,1.00
2018-09-08T09:05:20.696Z,2.00
2018-09-08T09:07:53.725Z,2.00
2018-09-08T09:10:26.798Z,1.00
2018-09-08T09:12:59.708Z,1.80
2018-09-08T09:15:31.425Z,1.60
2018-09-08T09:18:02.442Z,1.20
2018-09-08T09:22:48.585Z,2.00
2018-09-08T09:25:19.054Z,2.00
2018-09-08T09:27:51.247Z,2.00
2018-09-08T09:30:26.193Z,1.20
2018-09-08T09:32:57.352Z,1.80
2018-09-08T09:35:29.246Z,1.40
2018-09-08T09:38:00.381Z,1.00
2018-09-08T09:40:31.470Z,1.00
2018-09-08T09:43:02.644Z,1.00
2018-09-08T09:45:33.788Z,1.60
2018-09-08T09:48:04.972Z,2.00
2018-09-08T09:50:36.092Z,2.00
2018-09-08T09:53:07.291Z,2.00
2018-09-08T09:55:38.403Z,1.80
2018-09-08T09:58:10.119Z,1.20
2018-09-08T10:00:46.374Z,2.80
2018-09-08T10:03:19.491Z,1.00
2018-09-08T10:05:50.612Z,1.80
2018-09-08T10:08:21.754Z,1.00
2018-09-08T10:10:53.628Z,2.20
2018-09-08T10:13:24.756Z,1.80
2018-09-08T10:15:56.819Z,2.00
2018-09-08T10:18:29.281Z,2.00
2018-09-08T10:21:00.463Z,1.00
2018-09-08T10:23:32.283Z,1.00
2018-09-08T10:26:03.605Z,2.00
2018-09-08T10:28:34.792Z,2.00
2018-09-08T10:31:07.503Z,1.60
2018-09-08T10:33:39.894Z,2.00
2018-09-08T10:36:11.309Z,2.00
2018-09-08T10:38:42.473Z,1.80
2018-09-08T10:41:13.671Z,2.20
2018-09-08T10:43:44.924Z,1.40
2018-09-08T10:46:21.234Z,1.20
2018-09-08T10:48:52.372Z,2.20
2018-09-08T10:52:05.193Z,1.80
2018-09-08T10:54:36.967Z,2.00
2018-09-08T10:57:08.453Z,2.00
2018-09-08T10:59:41.036Z,1.20
2018-09-08T11:02:12.391Z,2.00
2018-09-08T11:04:43.568Z,1.60
2018-09-08T11:07:14.783Z,2.00
2018-09-08T11:09:46.593Z,2.00
2018-09-08T11:12:17.719Z,2.00
2018-09-08T11:14:49.858Z,2.00
2018-09-08T11:17:21.521Z,1.00
2018-09-08T11:19:54.899Z,1.40
2018-09-08T11:22:26.046Z,1.00
2018-09-08T11:24:57.234Z,2.00
2018-09-08T11:27:28.441Z,1.40
2018-09-08T11:29:59.639Z,1.80
2018-09-08T11:32:30.775Z,1.00
2018-09-08T11:35:02.983Z,1.00
2018-09-08T11:37:34.176Z,1.00
2018-09-08T11:40:05.350Z,1.20
2018-09-08T11:42:36.551Z,2.00
2018-09-08T11:45:08.311Z,1.80
2018-09-08T11:47:39.427Z,1.60
2018-09-08T11:50:12.111Z,1.20
2018-09-08T11:52:45.219Z,1.20
2018-09-08T11:55:16.607Z,1.00
2018-09-08T11:57:48.345Z,2.00
2018-09-08T12:00:21.330Z,1.80
2018-09-08T12:02:52.529Z,2.20
2018-09-08T12:05:24.842Z,1.20
2018-09-08T12:07:56.221Z,1.20
2018-09-08T12:10:30.446Z,1.20
2018-09-08T12:13:04.711Z,1.20
2018-09-08T12:15:38.302Z,2.00
2018-09-08T12:18:10.165Z,2.00
2018-09-08T12:20:41.665Z,1.40
2018-09-08T12:23:14.157Z,1.20
2018-09-08T12:25:45.453Z,1.00
2018-09-08T12:28:16.652Z,1.00
2018-09-08T12:30:48.854Z,2.00
2018-09-08T12:33:20.104Z,1.00
2018-09-08T12:35:53.857Z,1.80
2018-09-08T12:38:27.102Z,1.80
2018-09-08T12:40:58.339Z,2.00
2018-09-08T12:43:32.081Z,2.00
2018-09-08T12:46:04.395Z,1.00
2018-09-08T12:48:36.328Z,1.80
2018-09-08T12:51:09.476Z,1.00
2018-09-08T12:53:41.481Z,2.00
2018-09-08T12:56:12.797Z,2.00
2018-09-08T12:58:44.158Z,2.00
2018-09-08T13:01:15.880Z,2.00
2018-09-08T13:03:48.427Z,2.00
2018-09-08T13:06:19.608Z,1.80
2018-09-08T13:08:50.783Z,1.40
2018-09-08T13:11:21.947Z,1.00
2018-09-08T13:13:54.511Z,1.40
2018-09-08T13:16:25.615Z,1.20
2018-09-08T13:18:56.759Z,2.00
2018-09-08T13:21:30.330Z,1.60
2018-09-08T13:24:01.486Z,1.80
2018-09-08T13:26:33.621Z,1.80
2018-09-08T13:29:05.788Z,1.80
2018-09-08T13:31:37.613Z,1.00
2018-09-08T13:34:08.803Z,2.00
2018-09-08T13:36:43.560Z,1.00
2018-09-08T13:39:15.600Z,2.00
2018-09-08T13:41:48.242Z,1.00
2018-09-08T13:44:19.381Z,1.40
2018-09-08T13:46:50.578Z,1.00
2018-09-08T13:49:24.679Z,1.00
2018-09-08T13:51:58.828Z,2.00
2018-09-08T13:54:29.929Z,1.80
2018-09-08T13:57:01.439Z,1.00
2018-09-08T13:59:32.650Z,1.60
2018-09-08T14:02:03.832Z,1.00
2018-09-08T14:04:35.061Z,1.20
2018-09-08T14:07:08.590Z,2.00
2018-09-08T14:09:39.800Z,1.20
2018-09-08T14:12:11.205Z,1.60
2018-09-08T14:14:42.550Z,1.00
2018-09-08T14:17:13.709Z,1.00
2018-09-08T14:19:44.837Z,1.00
2018-09-08T14:22:16.917Z,1.00
2018-09-08T14:24:50.573Z,1.00
2018-09-08T14:27:23.009Z,1.00
2018-09-08T14:29:54.673Z,2.00
2018-09-08T14:32:25.794Z,1.00
2018-09-08T14:34:58.103Z,1.00
2018-09-08T14:37:29.213Z,1.00
2018-09-08T14:40:00.410Z,0.60
2018-09-08T14:42:31.528Z,1.00
2018-09-08T14:45:03.881Z,1.80
2018-09-08T14:47:34.995Z,1.80
2018-09-08T14:50:06.457Z,1.60
2018-09-08T14:52:37.647Z,1.60
2018-09-08T14:55:08.776Z,1.60
2018-09-08T14:57:41.265Z,1.00
2018-09-08T15:00:14.132Z,1.00
2018-09-08T15:02:46.296Z,1.00
2018-09-08T15:05:17.434Z,1.00
2018-09-08T15:07:48.735Z,1.40
2018-09-08T15:10:19.160Z,2.00
2018-09-08T15:12:50.264Z,1.80
2018-09-08T15:15:24.307Z,1.00
2018-09-08T15:17:55.458Z,1.00
2018-09-08T15:20:27.276Z,1.00
2018-09-08T15:22:58.505Z,1.80
2018-09-08T15:25:29.663Z,2.00
2018-09-08T15:28:01.466Z,2.00
2018-09-08T15:30:33.382Z,2.60
2018-09-08T15:33:08.210Z,2.00
2018-09-08T15:35:39.359Z,2.00
2018-09-08T15:38:10.435Z,2.20
2018-09-08T15:40:41.568Z,2.00
2018-09-08T15:43:12.719Z,1.00
2018-09-08T15:45:43.964Z,2.60
2018-09-08T15:48:15.250Z,2.00
2018-09-08T15:50:47.239Z,2.20
2018-09-08T15:53:18.417Z,2.00
2018-09-08T15:55:50.876Z,2.80
2018-09-08T15:58:22.932Z,2.20
2018-09-08T16:00:54.239Z,2.00
2018-09-08T16:03:25.512Z,2.00
2018-09-08T16:05:57.372Z,2.00
2018-09-08T16:08:28.501Z,2.00
2018-09-08T16:10:59.833Z,1.20
2018-09-08T16:13:31.207Z,1.00
2018-09-08T16:16:02.606Z,1.20
2018-09-08T16:18:34.579Z,1.00
2018-09-08T16:21:05.845Z,2.00
2018-09-08T16:23:36.956Z,1.20
2018-09-08T16:26:09.427Z,2.00
2018-09-08T16:28:40.630Z,1.00
2018-09-08T16:31:12.762Z,1.60
2018-09-08T16:33:43.913Z,1.00
2018-09-08T16:36:18.778Z,1.40
2018-09-08T16:38:50.073Z,2.00
2018-09-08T16:41:21.358Z,2.00
2018-09-08T16:43:53.971Z,2.00
2018-09-08T16:46:25.164Z,2.00
2018-09-08T16:48:56.328Z,2.80
2018-09-08T16:51:29.384Z,3.00
2018-09-08T16:54:00.536Z,2.20
2018-09-08T16:56:31.741Z,2.80
2018-09-08T16:59:02.888Z,2.00
2018-09-08T17:01:35.677Z,2.00
2018-09-08T17:04:06.853Z,1.60
2018-09-08T17:06:40.274Z,2.00
2018-09-08T17:09:11.828Z,2.00
2018-09-08T17:11:43.000Z,2.00
2018-09-08T17:14:14.942Z,1.00
2018-09-08T17:16:46.052Z,2.00
2018-09-08T17:19:18.408Z,2.80
2018-09-08T17:21:50.573Z,2.40
2018-09-08T17:24:23.049Z,2.00
2018-09-08T17:26:55.632Z,2.00
2018-09-08T17:29:27.484Z,2.00
2018-09-08T17:31:59.612Z,2.20
2018-09-08T17:34:31.912Z,2.00
2018-09-08T17:37:04.050Z,2.00
2018-09-08T17:39:35.167Z,2.00
2018-09-08T17:42:06.382Z,2.00
2018-09-08T17:44:37.536Z,3.00
2018-09-08T17:47:08.872Z,2.20
2018-09-08T17:49:44.464Z,2.60
2018-09-08T17:52:16.431Z,2.20
2018-09-08T17:54:49.724Z,2.40
2018-09-08T17:57:22.501Z,2.20
2018-09-08T17:59:54.389Z,2.20
2018-09-08T18:02:25.583Z,2.60
2018-09-08T18:04:57.600Z,3.00
2018-09-08T18:07:29.795Z,2.00
2018-09-08T18:10:03.221Z,2.00
2018-09-08T18:12:34.454Z,3.00
2018-09-08T18:15:06.394Z,2.00
2018-09-08T18:17:38.128Z,3.00
2018-09-08T18:20:10.500Z,3.00
2018-09-08T18:22:41.651Z,1.80
2018-09-08T18:25:13.658Z,3.00
2018-09-08T18:27:44.836Z,2.80
2018-09-08T18:30:18.478Z,3.00
2018-09-08T18:32:50.417Z,2.80
2018-09-08T18:35:22.525Z,2.40
2018-09-08T18:37:55.428Z,4.80
2018-09-08T18:40:27.382Z,3.60
2018-09-08T18:43:03.399Z,3.80
2018-09-08T18:45:34.740Z,4.00
2018-09-08T18:48:05.925Z,4.00
2018-09-08T18:50:37.238Z,4.00
2018-09-08T18:53:09.605Z,3.80
2018-09-08T18:55:41.381Z,3.00
2018-09-08T18:58:13.325Z,3.60
2018-09-08T19:00:45.008Z,3.80
2018-09-08T19:03:17.101Z,3.00
2018-09-08T19:05:50.492Z,5.00
2018-09-08T19:08:21.677Z,6.00
2018-09-08T19:10:52.503Z,7.00
2018-09-08T19:13:24.589Z,6.00
2018-09-08T19:15:56.860Z,6.00
2018-09-08T19:18:27.134Z,4.67
2018-09-08T19:20:59.380Z,5.00
2018-09-08T19:23:30.449Z,4.00
2018-09-08T19:26:02.322Z,3.40
2018-09-08T19:28:33.411Z,5.00
2018-09-08T19:31:06.535Z,5.00
2018-09-08T19:33:36.777Z,4.00
2018-09-08T19:36:09.700Z,4.67
2018-09-08T19:38:42.123Z,4.00
2018-09-08T19:41:16.943Z,3.80
2018-09-08T19:43:48.225Z,4.00
2018-09-08T19:46:25.363Z,5.00
2018-09-08T19:48:57.261Z,4.60
2018-09-08T19:51:30.898Z,4.00
2018-09-08T19:54:02.919Z,4.40
2018-09-08T19:56:39.840Z,4.80
2018-09-08T19:59:13.478Z,3.80
2018-09-08T20:01:45.373Z,4.00
2018-09-08T20:04:17.288Z,5.00
2018-09-08T20:06:48.353Z,3.33
2018-09-08T20:09:22.785Z,4.80
2018-09-08T20:11:54.591Z,4.40
2018-09-08T20:14:25.780Z,4.00
2018-09-08T20:16:59.397Z,4.00
2018-09-08T20:19:32.556Z,4.67
2018-09-08T20:22:06.204Z,5.00
2018-09-08T20:24:39.220Z,4.00
2018-09-08T20:27:11.300Z,4.00
2018-09-08T20:29:43.588Z,5.20
2018-09-08T20:32:15.512Z,4.33
2018-09-08T20:35:08.287Z,5.00
2018-09-08T20:37:55.902Z,6.00
2018-09-08T20:40:28.250Z,5.00
2018-09-08T20:43:00.274Z,5.00
2018-09-08T20:45:46.594Z,5.20
2018-09-08T20:48:19.421Z,5.00
2018-09-08T20:50:57.322Z,5.67
2018-09-08T20:53:27.697Z,4.00
2018-09-08T20:55:58.773Z,6.00
2018-09-08T20:58:30.807Z,5.60
2018-09-08T21:01:03.536Z,5.00
2018-09-08T21:03:35.104Z,5.00
2018-09-08T21:06:07.258Z,4.20
2018-09-08T21:08:38.935Z,5.00
2018-09-08T21:11:11.449Z,4.40
2018-09-08T21:13:42.574Z,6.00
2018-09-08T21:16:14.704Z,7.33
2018-09-08T21:18:44.989Z,7.33
2018-09-08T21:21:17.037Z,7.00
2018-09-08T21:23:49.205Z,8.00
2018-09-08T21:26:20.224Z,7.33
2018-09-08T21:28:52.480Z,6.33
2018-09-08T21:31:22.697Z,7.33
2018-09-08T21:33:52.990Z,6.33
2018-09-08T21:36:24.566Z,6.00
2018-09-08T21:38:55.888Z,8.00
2018-09-08T21:41:27.654Z,6.25
2018-09-08T21:43:57.639Z,9.00
2018-09-08T21:46:29.056Z,7.67
2018-09-08T21:48:59.266Z,7.67
2018-09-08T21:51:31.992Z,7.67
2018-09-08T21:54:06.388Z,7.00
2018-09-08T21:56:35.717Z,8.00
2018-09-08T21:59:06.585Z,6.67
2018-09-08T22:01:38.452Z,8.33
2018-09-08T22:04:09.467Z,6.33
2018-09-08T22:06:40.812Z,8.00
2018-09-08T22:09:11.311Z,6.67
2018-09-08T22:11:45.314Z,8.33
2018-09-08T22:14:16.556Z,8.33
2018-09-08T22:16:48.751Z,8.00
2018-09-08T22:19:19.820Z,6.25
2018-09-08T22:21:51.918Z,6.00
2018-09-08T22:24:22.361Z,6.33
2018-09-08T22:26:55.090Z,5.60
2018-09-08T22:29:29.121Z,5.00
2018-09-08T22:32:00.369Z,6.20
2018-09-08T22:34:30.706Z,5.00
2018-09-08T22:37:02.515Z,7.00
2018-09-08T22:39:38.584Z,5.67
2018-09-08T22:42:09.000Z,5.00
2018-09-08T22:44:40.813Z,5.00
2018-09-08T22:47:12.791Z,5.00
2018-09-08T22:49:45.010Z,5.00
2018-09-08T22:52:16.237Z,4.60
2018-09-08T22:54:47.592Z,6.20
2018-09-08T22:57:17.907Z,5.00
2018-09-08T22:59:50.417Z,8.00
2018-09-08T23:02:24.147Z,7.00
2018-09-08T23:04:55.813Z,4.00
2018-09-08T23:07:26.948Z,5.25
2018-09-08T23:10:00.244Z,5.33
2018-09-08T23:12:34.077Z,5.33
2018-09-08T23:15:08.102Z,6.50
2018-09-08T23:17:39.287Z,7.20
2018-09-08T23:20:09.648Z,4.00
2018-09-08T23:22:41.021Z,5.40
2018-09-08T23:25:11.521Z,5.33
2018-09-08T23:27:42.549Z,5.33
2018-09-08T23:30:14.308Z,6.67
2018-09-08T23:32:45.430Z,4.40
2018-09-08T23:35:16.547Z,6.33
2018-09-08T23:37:48.575Z,7.00
2018-09-08T23:40:19.620Z,6.33
2018-09-08T23:42:50.480Z,4.00
2018-09-08T23:45:24.356Z,7.00
2018-09-08T23:47:54.560Z,7.00
2018-09-08T23:50:25.013Z,5.33
2018-09-08T23:52:56.393Z,7.00
2018-09-08T23:55:26.635Z,4.33
2018-09-08T23:57:57.051Z,5.33
